Time;durP1;ratioP1;P1;durP2;ratioP2;P2;SDS_P1;SDS_P2;PMS_P1;PMS_P2;Temp;Humidity;BMP_temperature;BMP_pressure;BME280_temperature;BME280_humidity;BME280_pressure;Samples;Min_cycle;Max_cycle;Signal;HPM_P1;HPM_P2
2021/07/26 00:01:05;;;;;;;8.30;5.72;;;25.10;91.60;;;;;;5055125;28;20625;-75
2021/07/26 00:03:31;;;;;;;6.35;5.75;;;25.00;91.40;;;;;;5055131;28;20170;-75
2021/07/26 00:05:58;;;;;;;8.50;6.28;;;25.00;91.50;;;;;;5055008;28;20025;-75
2021/07/26 00:08:25;;;;;;;6.85;5.65;;;25.00;92.00;;;;;;5055132;28;20025;-75
2021/07/26 00:10:59;;;;;;;7.70;6.03;;;24.80;91.70;;;;;;5055009;28;20037;-75
2021/07/26 00:13:25;;;;;;;7.03;5.97;;;24.80;92.40;;;;;;5054919;28;20025;-75
2021/07/26 00:15:51;;;;;;;6.72;6.13;;;24.80;92.50;;;;;;5054953;28;20082;-75
2021/07/26 00:18:16;;;;;;;6.78;5.70;;;24.80;92.20;;;;;;5054635;28;20013;-75
2021/07/26 00:20:42;;;;;;;7.25;6.10;;;24.80;92.20;;;;;;5054327;28;20036;-75
2021/07/26 00:23:08;;;;;;;10.18;6.30;;;24.80;92.10;;;;;;5054879;28;20029;-75
2021/07/26 00:25:33;;;;;;;8.07;6.18;;;24.80;92.30;;;;;;5054450;28;20025;-76
2021/07/26 00:27:59;;;;;;;9.25;6.22;;;24.80;92.60;;;;;;5054438;28;20025;-75
2021/07/26 00:30:25;;;;;;;6.85;5.70;;;24.80;92.30;;;;;;5036345;28;20387;-75
2021/07/26 00:32:51;;;;;;;7.43;6.30;;;24.70;92.30;;;;;;5036552;28;20112;-75
2021/07/26 00:35:17;;;;;;;12.88;6.53;;;24.60;92.50;;;;;;5054638;28;20029;-75
2021/07/26 00:37:42;;;;;;;7.57;6.38;;;24.60;93.10;;;;;;5054295;28;20131;-75
2021/07/26 00:40:09;;;;;;;8.55;6.38;;;24.60;92.70;;;;;;5053190;28;20021;-75
2021/07/26 00:42:36;;;;;;;11.38;5.65;;;24.60;93.10;;;;;;5034530;28;20473;-75
2021/07/26 00:45:05;;;;;;;8.55;5.40;;;24.60;92.70;;;;;;5016560;28;20128;-75
2021/07/26 00:47:30;;;;;;;9.07;5.65;;;24.50;92.60;;;;;;5015410;28;20029;-75
2021/07/26 00:49:57;;;;;;;6.93;5.63;;;24.60;92.20;;;;;;5034312;28;20109;-75
2021/07/26 00:52:24;;;;;;;7.13;4.78;;;24.60;92.50;;;;;;5016249;28;20033;-75
2021/07/26 00:54:51;;;;;;;7.00;5.75;;;24.60;92.30;;;;;;5034375;28;20480;-75
2021/07/26 00:57:19;;;;;;;6.82;5.82;;;24.50;92.30;;;;;;5034264;28;20018;-75
2021/07/26 00:59:45;;;;;;;5.57;5.07;;;24.50;92.40;;;;;;5033884;28;20022;-75
2021/07/26 01:02:10;;;;;;;10.65;6.53;;;24.50;92.40;;;;;;5033818;28;20044;-75
2021/07/26 01:04:36;;;;;;;7.22;5.72;;;24.50;91.90;;;;;;5016415;28;20014;-75
2021/07/26 01:07:03;;;;;;;6.40;5.65;;;24.50;91.60;;;;;;5034192;28;20403;-75
2021/07/26 01:09:28;;;;;;;7.60;6.72;;;24.50;91.70;;;;;;5015696;28;20034;-75
2021/07/26 01:11:55;;;;;;;7.53;5.68;;;24.60;91.60;;;;;;5033578;28;20037;-75
2021/07/26 01:14:20;;;;;;;7.07;6.47;;;24.60;91.40;;;;;;5033960;28;20100;-75
2021/07/26 01:16:48;;;;;;;5.90;5.03;;;24.60;91.50;;;;;;5016051;28;20160;-76
2021/07/26 01:19:14;;;;;;;6.60;5.68;;;24.60;91.40;;;;;;5033628;28;20021;-75
2021/07/26 01:21:41;;;;;;;7.35;5.53;;;24.60;91.60;;;;;;5015758;28;20120;-75
2021/07/26 01:24:07;;;;;;;8.00;5.47;;;24.60;91.40;;;;;;5033447;28;20029;-75
2021/07/26 01:26:33;;;;;;;6.82;6.10;;;24.60;91.50;;;;;;5033616;28;20419;-75
2021/07/26 01:29:05;;;;;;;9.23;6.38;;;24.60;91.50;;;;;;5033238;28;20407;-75
2021/07/26 01:31:31;;;;;;;5.68;5.07;;;24.60;91.80;;;;;;5033178;28;20037;-75
2021/07/26 01:33:57;;;;;;;6.22;5.63;;;24.60;91.70;;;;;;5033557;28;20025;-75
2021/07/26 01:36:24;;;;;;;6.50;5.50;;;24.60;91.80;;;;;;5033619;28;20018;-75
2021/07/26 01:38:52;;;;;;;8.60;5.25;;;24.50;91.70;;;;;;5051200;28;20128;-75
2021/07/26 01:41:23;;;;;;;5.85;5.43;;;24.50;92.20;;;;;;5035343;28;20028;-75
2021/07/26 01:44:10;;;;;;;9.13;5.60;;;24.50;91.80;;;;;;5035116;28;20033;-75
2021/07/26 01:47:05;;;;;;;6.32;5.47;;;24.50;91.50;;;;;;5053254;28;20021;-75
2021/07/26 01:49:43;;;;;;;8.20;5.47;;;24.50;91.40;;;;;;5052671;28;20555;-75
2021/07/26 01:52:09;;;;;;;6.55;5.95;;;24.50;91.50;;;;;;5052642;28;20087;-75
2021/07/26 01:54:35;;;;;;;10.07;6.00;;;24.50;91.70;;;;;;5053007;28;20018;-75
2021/07/26 01:57:01;;;;;;;5.80;5.20;;;24.50;91.70;;;;;;5029518;28;20022;-75
2021/07/26 01:59:27;;;;;;;8.52;6.50;;;24.40;91.70;;;;;;5032534;28;20020;-75
2021/07/26 02:01:52;;;;;;;6.15;5.55;;;24.40;91.90;;;;;;5033260;28;20064;-75
2021/07/26 02:04:18;;;;;;;6.05;5.32;;;24.40;92.30;;;;;;5050798;28;20052;-75
2021/07/26 02:06:44;;;;;;;7.55;5.80;;;24.40;92.10;;;;;;5052656;28;20461;-75
2021/07/26 02:09:10;;;;;;;8.80;5.05;;;24.30;92.10;;;;;;5052650;28;20070;-75
2021/07/26 02:11:36;;;;;;;6.25;5.35;;;24.20;92.20;;;;;;5052971;28;20037;-75
2021/07/26 02:14:09;;;;;;;7.97;5.72;;;24.20;92.20;;;;;;5052756;28;20021;-75
2021/07/26 02:16:38;;;;;;;5.97;5.40;;;24.20;92.50;;;;;;5052449;28;20013;-75
2021/07/26 02:19:04;;;;;;;8.20;5.30;;;24.20;92.50;;;;;;5052800;28;20044;-75
2021/07/26 02:21:30;;;;;;;7.47;5.47;;;24.10;92.50;;;;;;5034617;28;20190;-75
2021/07/26 02:23:56;;;;;;;11.52;4.97;;;24.20;92.50;;;;;;5052657;28;20021;-75
2021/07/26 02:26:22;;;;;;;10.77;6.07;;;24.10;92.50;;;;;;5052623;28;20032;-75
2021/07/26 02:28:48;;;;;;;7.18;5.35;;;24.10;92.70;;;;;;5052346;28;20627;-75
2021/07/26 02:31:13;;;;;;;6.57;5.18;;;24.10;92.70;;;;;;5052428;28;20071;-75
2021/07/26 02:33:39;;;;;;;12.68;5.35;;;24.00;92.50;;;;;;5052479;28;20021;-75
2021/07/26 02:36:05;;;;;;;15.75;5.95;;;24.00;92.80;;;;;;5034718;28;20415;-75
2021/07/26 02:38:31;;;;;;;11.55;5.53;;;23.90;92.80;;;;;;5052173;28;20041;-75
2021/07/26 02:40:56;;;;;;;6.43;5.53;;;23.90;93.00;;;;;;5052395;28;20059;-75
2021/07/26 02:43:22;;;;;;;5.72;5.22;;;23.90;93.00;;;;;;5052320;28;20017;-75
2021/07/26 02:45:48;;;;;;;6.00;5.40;;;23.90;92.90;;;;;;5052438;28;20489;-75
2021/07/26 02:48:14;;;;;;;8.32;5.50;;;23.80;92.90;;;;;;5034356;28;20128;-75
2021/07/26 02:50:40;;;;;;;6.93;5.45;;;23.80;92.90;;;;;;5051787;28;20040;-75
2021/07/26 02:53:06;;;;;;;9.65;6.07;;;23.70;93.00;;;;;;5052324;28;20021;-75
2021/07/26 02:55:32;;;;;;;13.85;5.18;;;23.70;93.10;;;;;;5052350;28;20430;-74
2021/07/26 02:57:58;;;;;;;7.10;5.38;;;23.70;93.00;;;;;;5034216;28;20017;-75
2021/07/26 03:00:23;;;;;;;5.60;5.10;;;23.80;93.20;;;;;;5051363;28;20067;-75
2021/07/26 03:02:49;;;;;;;7.53;6.03;;;23.80;93.50;;;;;;5052080;28;20064;-75
2021/07/26 03:05:15;;;;;;;5.80;4.95;;;23.80;93.80;;;;;;5034442;28;20055;-75
2021/07/26 03:07:40;;;;;;;9.98;6.35;;;23.80;93.60;;;;;;5052368;28;20063;-75
2021/07/26 03:10:07;;;;;;;10.82;4.95;;;23.80;93.40;;;;;;5053347;28;20063;-75
2021/07/26 03:12:32;;;;;;;6.30;5.70;;;23.80;93.30;;;;;;5055925;28;20024;-75
2021/07/26 03:14:58;;;;;;;5.70;5.13;;;23.80;93.30;;;;;;5056020;28;20630;-75
2021/07/26 03:17:27;;;;;;;11.70;5.70;;;23.70;93.30;;;;;;5056000;28;20028;-75
2021/07/26 03:19:54;;;;;;;5.50;5.00;;;23.70;93.40;;;;;;5055868;28;20021;-75
2021/07/26 03:22:57;;;;;;;6.25;4.88;;;23.70;93.50;;;;;;5055811;28;20036;-75
2021/07/26 03:25:22;;;;;;;;;;;23.60;93.60;;;;;;5056318;28;20029;-75
2021/07/26 03:27:49;;;;;;;6.38;5.25;;;23.50;93.50;;;;;;5055951;28;19980;-75
2021/07/26 03:30:17;;;;;;;8.80;4.97;;;23.40;93.60;;;;;;5055675;28;20108;-75
2021/07/26 03:32:43;;;;;;;6.53;5.93;;;23.40;93.70;;;;;;5055740;28;20028;-75
2021/07/26 03:35:09;;;;;;;11.48;5.40;;;23.40;93.70;;;;;;5037971;28;20365;-75
2021/07/26 03:37:35;;;;;;;7.25;5.75;;;23.30;93.90;;;;;;5055288;28;20037;-75
2021/07/26 03:40:01;;;;;;;9.27;4.63;;;23.30;94.00;;;;;;5037676;28;20036;-75
2021/07/26 03:42:27;;;;;;;9.20;5.35;;;23.30;94.20;;;;;;5055343;28;20028;-75
2021/07/26 03:44:55;;;;;;;5.60;4.80;;;23.30;94.10;;;;;;5055611;28;20472;-75
2021/07/26 03:47:22;;;;;;;9.13;5.03;;;23.40;94.10;;;;;;5055657;28;20043;-75
2021/07/26 03:49:48;;;;;;;7.93;5.47;;;23.40;94.50;;;;;;5037404;28;20033;-75
2021/07/26 03:52:14;;;;;;;5.95;4.85;;;23.40;94.30;;;;;;5055015;28;20031;-75
2021/07/26 03:54:39;;;;;;;6.53;5.60;;;23.40;94.50;;;;;;5055308;28;20063;-75
2021/07/26 03:57:05;;;;;;;12.55;5.18;;;23.40;94.00;;;;;;5055097;28;20029;-75
2021/07/26 03:59:31;;;;;;;8.52;5.03;;;23.40;93.80;;;;;;5055221;28;20024;-75
2021/07/26 04:01:57;;;;;;;6.60;4.90;;;23.40;93.60;;;;;;5055009;28;20037;-75
2021/07/26 04:04:23;;;;;;;5.72;5.20;;;23.40;93.80;;;;;;5055224;28;20029;-75
2021/07/26 04:06:54;;;;;;;6.25;4.80;;;23.40;94.10;;;;;;5036676;28;20078;-75
2021/07/26 04:09:21;;;;;;;5.50;4.97;;;23.40;94.20;;;;;;5036826;28;20029;-75
2021/07/26 04:11:51;;;;;;;7.93;4.78;;;23.30;94.30;;;;;;5054725;28;20461;-75
2021/07/26 04:14:18;;;;;;;9.90;5.50;;;23.30;94.20;;;;;;5036981;28;20035;-75
2021/07/26 04:16:44;;;;;;;7.90;4.90;;;23.20;94.30;;;;;;5054675;28;20036;-75
2021/07/26 04:19:11;;;;;;;11.38;5.90;;;23.10;94.50;;;;;;5054759;28;20365;-75
2021/07/26 04:21:37;;;;;;;6.55;5.85;;;23.20;94.50;;;;;;5053581;28;20025;-75
2021/07/26 04:24:03;;;;;;;8.40;5.68;;;23.20;94.40;;;;;;5022211;28;20476;-75
2021/07/26 04:26:29;;;;;;;6.80;5.10;;;23.20;94.40;;;;;;5035804;28;20076;-75
2021/07/26 04:28:56;;;;;;;5.97;5.43;;;23.30;94.80;;;;;;5036534;28;20029;-75
2021/07/26 04:31:22;;;;;;;8.18;5.95;;;23.30;95.30;;;;;;5036608;28;20116;-75
2021/07/26 04:33:48;;;;;;;7.85;5.25;;;23.40;94.70;;;;;;5054820;28;20035;-75
2021/07/26 04:36:14;;;;;;;11.05;5.60;;;23.50;94.30;;;;;;5036795;28;20017;-75
2021/07/26 04:38:39;;;;;;;8.02;5.07;;;23.50;94.30;;;;;;5054171;28;20048;-75
2021/07/26 04:41:05;;;;;;;8.07;4.90;;;23.50;94.40;;;;;;5054244;28;20021;-75
2021/07/26 04:43:31;;;;;;;7.75;5.03;;;23.50;94.30;;;;;;5054532;28;20028;-75
2021/07/26 04:45:58;;;;;;;7.40;5.35;;;23.50;94.30;;;;;;5054306;28;20025;-75
2021/07/26 04:48:24;;;;;;;5.55;5.05;;;23.60;94.40;;;;;;5054249;28;20059;-75
2021/07/26 04:50:50;;;;;;;7.18;5.43;;;23.60;94.50;;;;;;5054120;28;20083;-75
2021/07/26 04:53:16;;;;;;;5.65;5.15;;;23.60;94.40;;;;;;5054040;28;20025;-75
2021/07/26 04:55:42;;;;;;;11.45;5.72;;;23.60;95.40;;;;;;5054177;28;20028;-75
2021/07/26 04:58:07;;;;;;;6.40;2.72;;;23.50;97.30;;;;;;5036414;28;20070;-81
2021/07/26 05:00:33;;;;;;;4.43;2.40;;;22.60;99.90;;;;;;5036392;28;20112;-81
2021/07/26 05:02:59;;;;;;;3.63;1.50;;;21.60;99.90;;;;;;5054090;28;20028;-80
2021/07/26 05:05:25;;;;;;;2.35;1.48;;;20.80;99.90;;;;;;5036744;28;20017;-81
2021/07/26 05:07:50;;;;;;;3.97;1.65;;;20.30;99.90;;;;;;5050352;28;20025;-79
2021/07/26 05:10:16;;;;;;;2.63;1.73;;;20.40;99.90;;;;;;5035916;28;20507;-78
2021/07/26 05:12:42;;;;;;;2.85;2.20;;;20.50;99.90;;;;;;5036200;28;20031;-78
2021/07/26 05:15:09;;;;;;;3.85;1.73;;;20.30;99.90;;;;;;5035913;28;20029;-78
2021/07/26 05:17:35;;;;;;;2.65;1.83;;;20.10;99.90;;;;;;5035532;28;20029;-78
2021/07/26 05:20:02;;;;;;;3.80;1.48;;;20.20;99.90;;;;;;5053624;28;20049;-77
2021/07/26 05:22:27;;;;;;;3.08;2.25;;;20.10;99.90;;;;;;5053507;28;20095;-77
2021/07/26 05:24:53;;;;;;;3.85;2.75;;;20.00;99.90;;;;;;5053790;28;20025;-77
2021/07/26 05:27:20;;;;;;;2.58;2.38;;;20.00;99.90;;;;;;5053483;28;20108;-77
2021/07/26 05:29:46;;;;;;;3.95;2.65;;;19.90;99.90;;;;;;5053698;28;20071;-76
2021/07/26 05:32:12;;;;;;;3.25;2.90;;;19.90;99.90;;;;;;5052448;28;20025;-77
2021/07/26 05:34:38;;;;;;;2.80;2.60;;;20.00;99.90;;;;;;5053614;28;20047;-77
2021/07/26 05:37:04;;;;;;;3.83;3.45;;;20.00;99.90;;;;;;5053460;28;20037;-78
2021/07/26 05:39:30;;;;;;;2.92;2.72;;;20.10;99.90;;;;;;5053433;28;20029;-77
2021/07/26 05:42:00;;;;;;;4.20;3.58;;;20.10;99.90;;;;;;5035604;28;20083;-77
2021/07/26 05:44:27;;;;;;;3.90;3.45;;;20.20;99.90;;;;;;5053500;28;20020;-77
2021/07/26 05:46:53;;;;;;;3.30;3.00;;;20.20;99.90;;;;;;5053284;28;20033;-77
2021/07/26 05:49:19;;;;;;;3.80;3.40;;;20.20;99.90;;;;;;5035403;28;20079;-78
2021/07/26 05:51:45;;;;;;;3.80;3.50;;;20.20;99.90;;;;;;5053037;28;20033;-78
2021/07/26 05:54:10;;;;;;;3.67;3.33;;;20.30;99.90;;;;;;5035342;28;20024;-78
2021/07/26 05:56:44;;;;;;;4.35;3.80;;;20.30;99.90;;;;;;5035343;28;20025;-78
2021/07/26 05:59:10;;;;;;;4.13;3.42;;;20.40;99.90;;;;;;5035190;28;20029;-77
2021/07/26 06:01:46;;;;;;;3.83;3.30;;;20.40;99.90;;;;;;5034548;28;20025;-78
2021/07/26 06:04:14;;;;;;;3.67;3.38;;;20.50;99.90;;;;;;5035140;28;20035;-77
2021/07/26 06:06:42;;;;;;;3.85;3.20;;;20.50;99.90;;;;;;5053278;28;20048;-77
2021/07/26 06:09:07;;;;;;;7.40;3.55;;;20.60;99.90;;;;;;5035170;28;20546;-78
2021/07/26 06:11:33;;;;;;;4.00;3.00;;;20.70;99.90;;;;;;5034705;28;20033;-78
2021/07/26 06:13:59;;;;;;;3.42;3.13;;;20.80;99.90;;;;;;5035086;28;20051;-78
2021/07/26 06:16:25;;;;;;;4.88;3.28;;;20.80;99.90;;;;;;5052793;28;20545;-78
2021/07/26 06:18:50;;;;;;;4.43;3.55;;;20.80;99.90;;;;;;5052901;28;20484;-77
2021/07/26 06:21:16;;;;;;;3.83;3.53;;;20.80;99.90;;;;;;5052624;28;20025;-78
2021/07/26 06:23:42;;;;;;;6.97;3.35;;;20.80;99.90;;;;;;5049426;28;20067;-78
2021/07/26 06:26:09;;;;;;;4.18;3.78;;;20.90;99.90;;;;;;5025137;28;20025;-78
2021/07/26 06:28:34;;;;;;;6.40;4.03;;;20.90;99.90;;;;;;5034752;28;20033;-79
2021/07/26 06:31:03;;;;;;;3.33;3.13;;;21.00;99.90;;;;;;5034411;28;20119;-78
2021/07/26 06:33:30;;;;;;;5.53;3.30;;;21.10;99.90;;;;;;5034848;28;20025;-78
2021/07/26 06:35:56;;;;;;;3.85;3.38;;;21.20;99.90;;;;;;5034860;28;20024;-78
2021/07/26 06:38:22;;;;;;;4.60;3.45;;;21.30;99.90;;;;;;5052672;28;20049;-78
2021/07/26 06:40:48;;;;;;;3.15;2.95;;;21.30;99.90;;;;;;5052498;28;20032;-78
2021/07/26 06:43:15;;;;;;;5.85;3.63;;;21.40;99.90;;;;;;5052746;28;20025;-78
2021/07/26 06:45:41;;;;;;;5.07;4.00;;;21.50;99.90;;;;;;5036632;28;20029;-78
2021/07/26 06:48:06;;;;;;;3.97;3.42;;;21.60;99.90;;;;;;5038178;28;20033;-79
2021/07/26 06:50:32;;;;;;;3.55;3.25;;;21.70;99.90;;;;;;5029590;28;20504;-78
2021/07/26 06:52:58;;;;;;;3.78;3.42;;;21.80;99.90;;;;;;5036232;28;20484;-79
2021/07/26 06:55:23;;;;;;;3.65;3.35;;;21.90;99.90;;;;;;5036596;28;20021;-78
2021/07/26 06:57:49;;;;;;;6.90;3.42;;;21.90;99.90;;;;;;5043716;28;20021;-78
2021/07/26 07:00:15;;;;;;;6.95;4.25;;;22.00;99.90;;;;;;5036509;28;20384;-78
2021/07/26 07:02:41;;;;;;;3.90;3.60;;;22.10;99.90;;;;;;5052953;28;20499;-78
2021/07/26 07:05:07;;;;;;;5.07;3.63;;;22.20;99.90;;;;;;5053669;28;20031;-78
2021/07/26 07:07:33;;;;;;;6.90;4.13;;;22.30;99.90;;;;;;5053693;28;20067;-78
2021/07/26 07:09:59;;;;;;;3.80;3.50;;;22.30;99.90;;;;;;5035200;28;20045;-79
2021/07/26 07:12:24;;;;;;;5.78;3.70;;;22.40;99.90;;;;;;5035187;28;20508;-78
2021/07/26 07:14:50;;;;;;;4.55;4.13;;;22.50;99.90;;;;;;5053803;28;20032;-79
2021/07/26 07:17:16;;;;;;;4.20;3.80;;;22.60;99.90;;;;;;5052869;28;20426;-78
2021/07/26 07:19:43;;;;;;;4.20;3.90;;;22.60;99.90;;;;;;5035329;28;20059;-79
2021/07/26 07:22:10;;;;;;;3.60;3.40;;;22.80;99.90;;;;;;5046913;28;20068;-78
2021/07/26 07:24:35;;;;;;;3.88;3.60;;;22.80;99.90;;;;;;5035617;28;20029;-78
2021/07/26 07:27:01;;;;;;;3.85;3.58;;;22.90;99.90;;;;;;5049960;28;20033;-78
2021/07/26 07:29:27;;;;;;;3.97;3.15;;;22.90;99.90;;;;;;5048533;28;20036;-78
2021/07/26 07:31:53;;;;;;;3.47;3.17;;;23.00;99.90;;;;;;5049190;28;20040;-78
2021/07/26 07:34:19;;;;;;;4.55;3.30;;;23.00;99.90;;;;;;5049668;28;20078;-78
2021/07/26 07:36:46;;;;;;;4.50;3.10;;;23.10;99.90;;;;;;5048226;28;20033;-78
2021/07/26 07:39:12;;;;;;;3.95;3.58;;;23.20;99.90;;;;;;5030896;28;20279;-78
2021/07/26 07:41:38;;;;;;;4.13;3.30;;;23.20;99.90;;;;;;5033800;28;20587;-78
2021/07/26 07:44:04;;;;;;;5.40;3.50;;;23.30;99.90;;;;;;5031587;28;20036;-78
2021/07/26 07:46:30;;;;;;;3.55;3.28;;;23.40;99.90;;;;;;5051501;28;20083;-78
2021/07/26 07:48:56;;;;;;;3.05;2.78;;;23.40;99.90;;;;;;5035287;28;20484;-78
2021/07/26 07:51:22;;;;;;;3.03;2.72;;;23.50;99.90;;;;;;5034595;28;20488;-78
2021/07/26 07:53:51;;;;;;;4.13;3.50;;;23.60;99.90;;;;;;5035384;28;20040;-79
2021/07/26 07:56:17;;;;;;;2.95;2.75;;;23.60;99.90;;;;;;5034858;28;20021;-79
2021/07/26 07:58:43;;;;;;;2.85;2.65;;;23.60;99.90;;;;;;5034853;28;20078;-79
2021/07/26 08:01:09;;;;;;;2.55;2.45;;;23.70;99.90;;;;;;5052936;28;20025;-78
2021/07/26 08:03:35;;;;;;;2.78;2.58;;;23.70;99.90;;;;;;5034813;28;20025;-79
2021/07/26 08:06:02;;;;;;;3.05;2.67;;;23.80;99.90;;;;;;5053072;28;20496;-79
2021/07/26 08:08:28;;;;;;;4.88;2.83;;;23.80;99.90;;;;;;5052132;28;20033;-78
2021/07/26 08:10:54;;;;;;;2.92;2.63;;;23.90;99.90;;;;;;5052886;28;20549;-78
2021/07/26 08:13:24;;;;;;;3.20;3.00;;;24.00;99.90;;;;;;5052870;28;20040;-79
2021/07/26 08:15:52;;;;;;;3.58;2.63;;;24.00;99.90;;;;;;5052498;28;20115;-78
2021/07/26 08:18:18;;;;;;;2.85;2.53;;;24.10;99.90;;;;;;5034808;28;20017;-79
2021/07/26 08:20:45;;;;;;;2.90;2.70;;;24.20;99.90;;;;;;5034841;28;20481;-78
2021/07/26 08:23:12;;;;;;;2.67;2.47;;;24.30;99.90;;;;;;5052108;28;20025;-79
2021/07/26 08:25:38;;;;;;;3.22;2.40;;;24.40;99.90;;;;;;5034839;28;20087;-79
2021/07/26 08:28:03;;;;;;;3.28;3.08;;;24.40;99.90;;;;;;5052146;28;20025;-78
2021/07/26 08:30:34;;;;;;;3.15;2.95;;;24.50;99.90;;;;;;5052107;28;20149;-78
2021/07/26 08:33:01;;;;;;;3.10;2.80;;;24.60;99.30;;;;;;5052394;28;20029;-78
2021/07/26 08:35:28;;;;;;;2.75;2.40;;;24.60;99.40;;;;;;5034450;28;20115;-78
2021/07/26 08:37:55;;;;;;;4.68;2.75;;;24.70;98.90;;;;;;5031664;28;20408;-78
2021/07/26 08:40:22;;;;;;;3.55;3.25;;;24.80;99.00;;;;;;5032690;28;20124;-78
2021/07/26 08:42:48;;;;;;;2.22;2.13;;;24.90;98.80;;;;;;5033896;28;20029;-78
2021/07/26 08:45:14;;;;;;;2.80;2.60;;;25.00;98.80;;;;;;5035345;28;20421;-78
2021/07/26 08:47:42;;;;;;;5.57;3.00;;;25.00;98.60;;;;;;5026981;28;20041;-78
2021/07/26 08:50:10;;;;;;;2.67;2.47;;;25.10;98.80;;;;;;5033320;28;20049;-78
2021/07/26 08:52:41;;;;;;;3.13;2.80;;;25.10;97.90;;;;;;5040099;28;20032;-78
2021/07/26 08:55:15;;;;;;;4.78;3.67;;;25.20;98.00;;;;;;5044455;28;20021;-78
2021/07/26 08:57:43;;;;;;;3.42;2.72;;;25.30;97.50;;;;;;5033286;28;20072;-78
2021/07/26 09:00:10;;;;;;;2.90;2.70;;;25.40;96.90;;;;;;5049563;28;20025;-78
2021/07/26 09:02:36;;;;;;;2.58;2.38;;;25.50;97.00;;;;;;5050988;28;20037;-78
2021/07/26 09:05:02;;;;;;;3.75;2.97;;;25.50;96.70;;;;;;5053692;28;20033;-78
2021/07/26 09:07:27;;;;;;;3.60;3.30;;;25.60;96.20;;;;;;5049140;28;20036;-78
2021/07/26 09:09:53;;;;;;;3.65;3.35;;;25.60;96.00;;;;;;5032176;28;20120;-78
2021/07/26 09:12:34;;;;;;;6.18;3.25;;;25.70;95.90;;;;;;5050273;28;20239;-78
2021/07/26 09:15:00;;;;;;;6.45;3.67;;;25.80;94.60;;;;;;5049971;28;20052;-78
2021/07/26 09:18:06;;;;;;;4.93;4.00;;;25.90;94.40;;;;;;5032534;28;20079;-78
2021/07/26 09:20:33;;;;;;;6.20;4.13;;;25.90;95.50;;;;;;5039013;28;20503;-78
2021/07/26 09:23:16;;;;;;;5.95;4.65;;;25.90;96.80;;;;;;5050496;28;20503;-78
2021/07/26 09:25:47;;;;;;;6.03;4.93;;;26.00;96.80;;;;;;5043710;28;20116;-78
2021/07/26 09:28:17;;;;;;;4.97;4.60;;;26.10;96.80;;;;;;5050356;28;20028;-78
2021/07/26 09:30:51;;;;;;;9.05;4.45;;;26.20;97.70;;;;;;5049364;28;20289;-78
2021/07/26 09:33:23;;;;;;;5.03;4.55;;;26.30;96.60;;;;;;5032822;28;20103;-78
2021/07/26 09:36:21;;;;;;;6.32;4.93;;;26.30;95.60;;;;;;5048352;28;20064;-78
2021/07/26 09:38:52;;;;;;;5.80;4.57;;;26.30;97.20;;;;;;4998707;28;20036;-78
2021/07/26 09:41:39;;;;;;;5.72;4.45;;;26.40;96.90;;;;;;5049998;28;20369;-78
2021/07/26 09:44:05;;;;;;;6.82;5.15;;;26.60;96.90;;;;;;5032436;28;20124;-78
2021/07/26 09:46:31;;;;;;;5.72;5.22;;;26.70;95.80;;;;;;5031818;28;20033;-77
2021/07/26 09:49:11;;;;;;;9.27;5.93;;;26.80;95.10;;;;;;5050338;28;20028;-77
2021/07/26 09:51:37;;;;;;;6.47;4.43;;;26.70;95.30;;;;;;5031512;28;20025;-78
2021/07/26 09:54:03;;;;;;;4.90;4.50;;;26.80;95.10;;;;;;5050363;28;20033;-78
2021/07/26 09:56:32;;;;;;;5.93;5.15;;;26.90;95.20;;;;;;5050258;28;20538;-78
2021/07/26 09:58:58;;;;;;;5.57;5.07;;;27.00;94.50;;;;;;5049707;28;20113;-77
2021/07/26 10:01:24;;;;;;;11.10;5.57;;;26.90;94.80;;;;;;5050059;28;20111;-77
2021/07/26 10:03:53;;;;;;;5.18;4.38;;;26.90;95.60;;;;;;5027212;28;20056;-77
2021/07/26 10:06:20;;;;;;;5.57;4.55;;;27.00;93.60;;;;;;5030478;28;20115;-77
2021/07/26 10:08:49;;;;;;;4.50;4.10;;;27.00;94.20;;;;;;5042987;28;20037;-77
2021/07/26 10:11:15;;;;;;;5.72;4.05;;;27.10;94.90;;;;;;5050580;28;20017;-77
2021/07/26 10:13:44;;;;;;;8.23;4.15;;;27.30;94.00;;;;;;5050058;28;20100;-77
2021/07/26 10:16:14;;;;;;;9.23;4.20;;;27.30;93.30;;;;;;5043153;28;20100;-77
2021/07/26 10:18:48;;;;;;;8.55;4.32;;;27.40;93.50;;;;;;5050275;28;20017;-77
2021/07/26 10:21:17;;;;;;;7.35;5.32;;;27.50;93.60;;;;;;5032320;28;20040;-77
2021/07/26 10:23:55;;;;;;;13.27;5.05;;;27.50;93.20;;;;;;5050816;28;20103;-76
2021/07/26 10:26:31;;;;;;;6.95;4.95;;;27.50;93.50;;;;;;5032168;28;20507;-77
2021/07/26 10:28:58;;;;;;;5.65;4.80;;;27.60;94.70;;;;;;5044027;28;20468;-77
2021/07/26 10:31:34;;;;;;;8.02;5.22;;;27.70;93.60;;;;;;5049319;28;20021;-77
2021/07/26 10:34:01;;;;;;;6.55;5.18;;;27.70;92.80;;;;;;5031505;28;20543;-77
2021/07/26 10:36:42;;;;;;;6.93;5.47;;;27.70;92.50;;;;;;5031451;28;20112;-77
2021/07/26 10:39:09;;;;;;;9.32;6.00;;;27.70;92.90;;;;;;5029955;28;20034;-76
2021/07/26 10:41:44;;;;;;;7.60;6.72;;;27.70;94.10;;;;;;5012143;28;20045;-77
2021/07/26 10:44:33;;;;;;;7.00;6.35;;;27.80;94.70;;;;;;5028243;28;20029;-77
2021/07/26 10:49:42;;;;;;;8.20;5.20;;;27.80;93.60;;;;;;5028389;28;20053;-76
2021/07/26 10:52:11;;;;;;;6.20;4.95;;;27.90;92.60;;;;;;5005405;28;20504;-76
2021/07/26 10:54:37;;;;;;;7.57;5.53;;;28.00;92.90;;;;;;5006835;28;20075;-77
2021/07/26 10:57:05;;;;;;;6.00;5.35;;;28.10;92.80;;;;;;5001397;28;20026;-76
2021/07/26 11:00:09;;;;;;;9.63;6.10;;;28.20;92.60;;;;;;5023601;28;20392;-77
2021/07/26 11:02:46;;;;;;;7.10;5.15;;;28.20;93.10;;;;;;5028269;28;20469;-76
2021/07/26 11:05:27;;;;;;;10.05;5.18;;;28.20;92.50;;;;;;5013778;28;20405;-76
2021/07/26 11:08:14;;;;;;;9.27;5.57;;;28.10;92.80;;;;;;5022598;28;20428;-76
2021/07/26 11:10:46;;;;;;;6.45;5.65;;;28.00;93.40;;;;;;5028270;28;20029;-76
2021/07/26 11:13:13;;;;;;;6.75;5.50;;;28.10;92.40;;;;;;5028291;28;20037;-76
2021/07/26 11:15:54;;;;;;;5.47;4.97;;;28.30;92.20;;;;;;5028846;28;20060;-76
2021/07/26 11:18:28;;;;;;;7.40;5.70;;;28.50;92.20;;;;;;5002887;28;20477;-76
2021/07/26 11:21:09;;;;;;;6.57;5.68;;;28.60;91.70;;;;;;5029315;28;20032;-76
2021/07/26 11:23:55;;;;;;;6.97;5.53;;;28.60;91.20;;;;;;5027680;28;20029;-76
2021/07/26 11:26:22;;;;;;;6.55;5.28;;;28.70;92.60;;;;;;5026178;28;20037;-76
2021/07/26 11:28:49;;;;;;;5.78;5.03;;;28.70;92.00;;;;;;5021227;28;20030;-76
2021/07/26 11:31:27;;;;;;;5.65;5.15;;;28.80;91.80;;;;;;5024381;28;20080;-76
2021/07/26 11:33:54;;;;;;;6.40;5.25;;;28.90;91.60;;;;;;5029377;28;20032;-76
2021/07/26 11:36:20;;;;;;;6.88;5.85;;;29.00;92.00;;;;;;5030432;28;20026;-76
2021/07/26 11:38:59;;;;;;;7.97;5.93;;;29.10;93.20;;;;;;5028957;28;20072;-76
2021/07/26 11:41:25;;;;;;;7.45;5.47;;;29.20;91.50;;;;;;5033005;28;20037;-76
2021/07/26 11:43:52;;;;;;;7.78;6.63;;;29.30;91.80;;;;;;5032728;28;20030;-76
2021/07/26 11:46:18;;;;;;;6.60;5.90;;;29.30;91.90;;;;;;5032423;28;20084;-76
2021/07/26 11:48:44;;;;;;;8.30;6.50;;;29.30;92.10;;;;;;5030989;28;20049;-76
2021/07/26 11:51:27;;;;;;;14.00;6.65;;;29.40;92.90;;;;;;5032703;28;20025;-76
2021/07/26 11:54:02;;;;;;;8.32;6.53;;;29.30;93.00;;;;;;5031417;28;20108;-76
2021/07/26 11:56:31;;;;;;;9.55;7.07;;;29.40;91.80;;;;;;5031054;28;20021;-76
2021/07/26 11:59:17;;;;;;;7.93;6.78;;;29.50;91.10;;;;;;5031986;28;20076;-76
2021/07/26 12:01:46;;;;;;;7.25;6.07;;;29.50;91.20;;;;;;5027757;28;20496;-76
2021/07/26 12:04:13;;;;;;;6.85;5.45;;;29.50;90.50;;;;;;5031950;28;20033;-76
2021/07/26 12:06:59;;;;;;;6.85;6.10;;;29.40;91.70;;;;;;5032153;28;20080;-76
2021/07/26 12:09:25;;;;;;;8.30;5.85;;;29.30;91.00;;;;;;5031635;28;20366;-76
2021/07/26 12:11:53;;;;;;;10.82;6.30;;;29.20;91.00;;;;;;5031720;28;20504;-76
2021/07/26 12:14:25;;;;;;;7.97;5.95;;;29.10;90.80;;;;;;5031702;28;20049;-76
2021/07/26 12:16:56;;;;;;;;;;;29.00;91.00;;;;;;5031729;28;20032;-76
2021/07/26 12:19:22;;;;;;;6.55;5.95;;;28.90;90.90;;;;;;5028712;28;19920;-76
2021/07/26 12:21:48;;;;;;;6.13;5.53;;;28.90;90.90;;;;;;5031973;28;20041;-76
2021/07/26 12:24:13;;;;;;;8.88;6.07;;;28.90;91.70;;;;;;5030760;28;20442;-76
2021/07/26 12:26:59;;;;;;;8.48;6.28;;;28.90;91.70;;;;;;5032253;28;20033;-76
2021/07/26 12:29:26;;;;;;;7.00;6.30;;;28.90;92.20;;;;;;5030935;28;20412;-76
2021/07/26 12:32:03;;;;;;;8.38;6.78;;;29.20;92.40;;;;;;5031330;28;20401;-76
2021/07/26 12:34:29;;;;;;;6.90;6.30;;;29.30;92.00;;;;;;5031324;28;20037;-76
2021/07/26 12:36:57;;;;;;;7.82;6.78;;;29.40;92.60;;;;;;5031635;28;20022;-76
2021/07/26 12:39:43;;;;;;;7.35;6.57;;;29.60;92.50;;;;;;5033464;28;20033;-76
2021/07/26 12:42:22;;;;;;;8.05;6.35;;;29.70;92.70;;;;;;5052076;28;20150;-76
2021/07/26 12:44:48;;;;;;;8.82;6.32;;;29.90;91.90;;;;;;5045663;28;20067;-76
2021/07/26 12:47:33;;;;;;;7.55;6.05;;;30.00;92.30;;;;;;5051397;28;20029;-76
2021/07/26 12:49:58;;;;;;;7.28;6.20;;;30.30;92.30;;;;;;5045500;28;20029;-76
2021/07/26 12:52:24;;;;;;;8.60;6.07;;;30.30;90.40;;;;;;5050606;28;20037;-76
2021/07/26 12:54:50;;;;;;;7.07;6.38;;;30.30;89.60;;;;;;5049984;28;20017;-76